Pagina principale
METAR-TAF:

METAR-TAF

Aeroporti :

Grosseto, Italia

Aeroporto di Grosseto

latitudine: 42-45N, longitudine: 011-04E, altezza: 5 m

Osservazione

Il bollettino è stato emesso 43 minuti fa, alle 08:55 UTC
Vento 9 kt da sud/sud-ovest
Temperature 26°C
Umidità 45%
Pressione 1018 hPa
Visibilità 10 km o più
nessuna nube inferiore a 1500 m e nessun cumulonembo

METAR: LIRS 290855Z 20009KT CAVOK 26/13 Q1018 RMK SKC VIS MIN 9999 WIND THR03 20010KT WIND THR21 22004KT BLU

Ora: 11:38 (09:38 UTC)

Previsione

Il bollettino è stato emesso 1 ora e 38 minuti fa, alle 08:00 UTC
Previsione valida dal 29 alle 09 UTC al 29 alle 18 UTC
Vento 10 kt da sud
Visibilità 10 km o più
nessuna nube inferiore a 1500 m e nessun cumulonembo

TAF: LIRS 290800Z 2909/2918 18010KT CAVOK

Osservazioni e previsioni meteorologiche di più di 4000 aeroporti (messaggi METAR e TAF).

Le stazioni disponibili sono rappresentate dai dischi gialli e rossi sulla carta.

Puntare il mouse per vedere il nome della stazione.

Clicca sopra per visualizzare le osservazioni e previsioni meteorologiche.

Per cambiare la mappa : fare clic sui pulsanti verdi con una croce nera per ingrandire, il pulsante verde con un trattino per diminuire, o sulla freccia verde per le mappe adiacenti.


METAR-TAF: